sensor_id;sensor_type;location;lat;lon;timestamp;P1;durP1;ratioP1;P2;durP2;ratioP2
40527;SDS011;26230;51.268;6.534;2023-12-14T00:00:12;39.7;;;28.5;;
40527;SDS011;26230;51.268;6.534;2023-12-14T00:10:12;39.7;;;28.5;;
40527;SDS011;26230;51.268;6.534;2023-12-14T00:20:12;39.8;;;22.7;;
40527;SDS011;26230;51.268;6.534;2023-12-14T00:30:13;39.8;;;25.1;;
40527;SDS011;26230;51.268;6.534;2023-12-14T00:40:12;39.8;;;25.1;;
40527;SDS011;26230;51.268;6.534;2023-12-14T00:50:12;39.1;;;26.1;;
40527;SDS011;26230;51.268;6.534;2023-12-14T01:00:12;30.0;;;21.2;;
40527;SDS011;26230;51.268;6.534;2023-12-14T01:10:11;30.0;;;21.2;;
40527;SDS011;26230;51.268;6.534;2023-12-14T01:20:12;27.2;;;17.8;;
40527;SDS011;26230;51.268;6.534;2023-12-14T01:30:12;33.5;;;23.6;;
40527;SDS011;26230;51.268;6.534;2023-12-14T01:40:12;33.5;;;23.6;;
40527;SDS011;26230;51.268;6.534;2023-12-14T01:50:12;31.9;;;22.3;;
40527;SDS011;26230;51.268;6.534;2023-12-14T02:00:21;33.7;;;22.9;;
40527;SDS011;26230;51.268;6.534;2023-12-14T02:10:11;33.7;;;22.9;;
40527;SDS011;26230;51.268;6.534;2023-12-14T02:20:12;35.8;;;22.2;;
40527;SDS011;26230;51.268;6.534;2023-12-14T02:30:12;37.0;;;21.9;;
40527;SDS011;26230;51.268;6.534;2023-12-14T02:40:13;37.0;;;21.9;;
40527;SDS011;26230;51.268;6.534;2023-12-14T02:50:12;47.1;;;26.5;;
40527;SDS011;26230;51.268;6.534;2023-12-14T03:00:13;32.3;;;22.1;;
40527;SDS011;26230;51.268;6.534;2023-12-14T03:10:11;32.3;;;22.1;;
40527;SDS011;26230;51.268;6.534;2023-12-14T03:20:14;24.1;;;16.9;;
40527;SDS011;26230;51.268;6.534;2023-12-14T03:30:12;23.9;;;17.9;;
40527;SDS011;26230;51.268;6.534;2023-12-14T03:40:12;23.9;;;17.9;;
40527;SDS011;26230;51.268;6.534;2023-12-14T03:50:12;28.2;;;20.5;;
40527;SDS011;26230;51.268;6.534;2023-12-14T04:00:12;31.8;;;22.2;;
40527;SDS011;26230;51.268;6.534;2023-12-14T04:10:13;31.8;;;22.2;;
40527;SDS011;26230;51.268;6.534;2023-12-14T04:20:13;37.7;;;25.3;;
40527;SDS011;26230;51.268;6.534;2023-12-14T04:30:12;38.3;;;24.0;;
40527;SDS011;26230;51.268;6.534;2023-12-14T04:40:11;38.3;;;24.0;;
40527;SDS011;26230;51.268;6.534;2023-12-14T04:50:14;34.1;;;23.3;;
40527;SDS011;26230;51.268;6.534;2023-12-14T05:00:12;33.9;;;22.0;;
40527;SDS011;26230;51.268;6.534;2023-12-14T05:10:11;33.9;;;22.0;;
40527;SDS011;26230;51.268;6.534;2023-12-14T05:20:12;32.1;;;20.5;;
40527;SDS011;26230;51.268;6.534;2023-12-14T05:30:13;30.3;;;21.6;;
40527;SDS011;26230;51.268;6.534;2023-12-14T05:40:11;30.3;;;21.6;;
40527;SDS011;26230;51.268;6.534;2023-12-14T05:50:12;33.0;;;22.3;;
40527;SDS011;26230;51.268;6.534;2023-12-14T06:00:12;32.5;;;20.9;;
40527;SDS011;26230;51.268;6.534;2023-12-14T06:10:12;32.5;;;20.9;;
40527;SDS011;26230;51.268;6.534;2023-12-14T06:20:12;24.5;;;17.9;;
40527;SDS011;26230;51.268;6.534;2023-12-14T06:30:12;27.2;;;19.5;;
40527;SDS011;26230;51.268;6.534;2023-12-14T06:40:11;27.2;;;19.5;;
40527;SDS011;26230;51.268;6.534;2023-12-14T06:50:12;24.8;;;17.6;;
40527;SDS011;26230;51.268;6.534;2023-12-14T07:00:13;24.6;;;18.1;;
40527;SDS011;26230;51.268;6.534;2023-12-14T07:10:11;24.6;;;18.1;;
40527;SDS011;26230;51.268;6.534;2023-12-14T07:20:12;31.5;;;22.4;;
40527;SDS011;26230;51.268;6.534;2023-12-14T07:30:12;29.0;;;21.4;;
40527;SDS011;26230;51.268;6.534;2023-12-14T07:40:12;29.0;;;21.4;;
40527;SDS011;26230;51.268;6.534;2023-12-14T07:50:12;25.7;;;20.0;;
40527;SDS011;26230;51.268;6.534;2023-12-14T08:00:12;28.2;;;21.3;;
40527;SDS011;26230;51.268;6.534;2023-12-14T08:10:11;28.2;;;21.3;;
40527;SDS011;26230;51.268;6.534;2023-12-14T08:20:13;32.4;;;23.6;;
40527;SDS011;26230;51.268;6.534;2023-12-14T08:30:12;30.3;;;22.2;;
40527;SDS011;26230;51.268;6.534;2023-12-14T08:40:12;30.3;;;22.2;;
40527;SDS011;26230;51.268;6.534;2023-12-14T08:50:12;26.7;;;20.4;;
40527;SDS011;26230;51.268;6.534;2023-12-14T09:00:12;22.5;;;18.0;;
40527;SDS011;26230;51.268;6.534;2023-12-14T09:10:11;22.5;;;18.0;;
40527;SDS011;26230;51.268;6.534;2023-12-14T09:20:11;24.2;;;16.8;;
40527;SDS011;26230;51.268;6.534;2023-12-14T09:30:12;22.1;;;17.0;;
40527;SDS011;26230;51.268;6.534;2023-12-14T09:40:11;22.1;;;17.0;;
40527;SDS011;26230;51.268;6.534;2023-12-14T09:50:14;19.9;;;17.0;;
40527;SDS011;26230;51.268;6.534;2023-12-14T10:00:14;24.5;;;17.7;;
40527;SDS011;26230;51.268;6.534;2023-12-14T10:10:13;24.5;;;17.7;;
40527;SDS011;26230;51.268;6.534;2023-12-14T10:20:14;18.5;;;15.8;;
40527;SDS011;26230;51.268;6.534;2023-12-14T10:30:12;16.6;;;14.3;;
40527;SDS011;26230;51.268;6.534;2023-12-14T10:40:13;16.6;;;14.3;;
40527;SDS011;26230;51.268;6.534;2023-12-14T10:50:12;18.1;;;14.4;;
40527;SDS011;26230;51.268;6.534;2023-12-14T11:00:12;21.2;;;17.1;;
40527;SDS011;26230;51.268;6.534;2023-12-14T11:10:11;21.2;;;17.1;;
40527;SDS011;26230;51.268;6.534;2023-12-14T11:20:24;18.9;;;14.5;;
40527;SDS011;26230;51.268;6.534;2023-12-14T11:30:12;18.6;;;13.4;;
40527;SDS011;26230;51.268;6.534;2023-12-14T11:40:13;18.6;;;13.4;;
40527;SDS011;26230;51.268;6.534;2023-12-14T11:50:12;17.5;;;13.5;;
40527;SDS011;26230;51.268;6.534;2023-12-14T12:00:12;13.9;;;10.5;;
40527;SDS011;26230;51.268;6.534;2023-12-14T12:10:11;13.9;;;10.5;;
40527;SDS011;26230;51.268;6.534;2023-12-14T12:20:12;12.6;;;9.8;;
40527;SDS011;26230;51.268;6.534;2023-12-14T12:30:12;16.9;;;10.3;;
40527;SDS011;26230;51.268;6.534;2023-12-14T12:40:11;16.9;;;10.3;;
40527;SDS011;26230;51.268;6.534;2023-12-14T12:50:12;13.9;;;9.7;;
40527;SDS011;26230;51.268;6.534;2023-12-14T13:00:11;9.7;;;7.6;;
40527;SDS011;26230;51.268;6.534;2023-12-14T13:10:26;9.7;;;7.6;;
40527;SDS011;26230;51.268;6.534;2023-12-14T13:20:11;12.4;;;9.2;;
40527;SDS011;26230;51.268;6.534;2023-12-14T13:30:16;13.7;;;9.2;;
40527;SDS011;26230;51.268;6.534;2023-12-14T13:40:16;13.7;;;9.2;;
40527;SDS011;26230;51.268;6.534;2023-12-14T13:50:11;12.4;;;9.1;;
40527;SDS011;26230;51.268;6.534;2023-12-14T14:00:12;11.4;;;9.2;;
40527;SDS011;26230;51.268;6.534;2023-12-14T14:10:11;11.4;;;9.2;;
40527;SDS011;26230;51.268;6.534;2023-12-14T14:20:11;11.3;;;9.8;;
40527;SDS011;26230;51.268;6.534;2023-12-14T14:30:12;13.6;;;8.3;;
40527;SDS011;26230;51.268;6.534;2023-12-14T14:40:14;13.6;;;8.3;;
40527;SDS011;26230;51.268;6.534;2023-12-14T14:50:11;12.3;;;10.1;;
40527;SDS011;26230;51.268;6.534;2023-12-14T15:00:12;13.7;;;10.4;;
40527;SDS011;26230;51.268;6.534;2023-12-14T15:10:11;13.7;;;10.4;;
40527;SDS011;26230;51.268;6.534;2023-12-14T15:20:11;17.3;;;11.0;;
40527;SDS011;26230;51.268;6.534;2023-12-14T15:30:12;14.9;;;11.2;;
40527;SDS011;26230;51.268;6.534;2023-12-14T15:40:11;14.9;;;11.2;;
40527;SDS011;26230;51.268;6.534;2023-12-14T15:50:12;15.5;;;11.4;;
40527;SDS011;26230;51.268;6.534;2023-12-14T16:00:14;15.7;;;11.8;;
40527;SDS011;26230;51.268;6.534;2023-12-14T16:10:12;15.7;;;11.8;;
40527;SDS011;26230;51.268;6.534;2023-12-14T16:20:11;18.5;;;14.4;;
40527;SDS011;26230;51.268;6.534;2023-12-14T16:30:12;16.9;;;13.5;;
40527;SDS011;26230;51.268;6.534;2023-12-14T16:40:12;16.9;;;13.5;;
40527;SDS011;26230;51.268;6.534;2023-12-14T16:50:12;18.1;;;13.9;;
40527;SDS011;26230;51.268;6.534;2023-12-14T17:00:12;18.5;;;14.9;;
40527;SDS011;26230;51.268;6.534;2023-12-14T17:10:12;18.5;;;14.9;;
40527;SDS011;26230;51.268;6.534;2023-12-14T17:20:11;19.6;;;14.8;;
40527;SDS011;26230;51.268;6.534;2023-12-14T17:30:12;16.9;;;13.7;;
40527;SDS011;26230;51.268;6.534;2023-12-14T17:40:11;16.9;;;13.7;;
40527;SDS011;26230;51.268;6.534;2023-12-14T17:50:11;21.8;;;14.3;;
40527;SDS011;26230;51.268;6.534;2023-12-14T18:00:11;18.6;;;14.6;;
40527;SDS011;26230;51.268;6.534;2023-12-14T18:10:13;18.6;;;14.6;;
40527;SDS011;26230;51.268;6.534;2023-12-14T18:20:12;22.8;;;15.3;;
40527;SDS011;26230;51.268;6.534;2023-12-14T18:30:11;20.3;;;15.5;;
40527;SDS011;26230;51.268;6.534;2023-12-14T18:40:12;20.3;;;15.5;;
40527;SDS011;26230;51.268;6.534;2023-12-14T18:50:12;20.1;;;14.7;;
40527;SDS011;26230;51.268;6.534;2023-12-14T19:00:13;24.7;;;16.9;;
40527;SDS011;26230;51.268;6.534;2023-12-14T19:10:13;24.7;;;16.9;;
40527;SDS011;26230;51.268;6.534;2023-12-14T19:20:12;21.3;;;14.0;;
40527;SDS011;26230;51.268;6.534;2023-12-14T19:30:15;17.0;;;13.3;;
40527;SDS011;26230;51.268;6.534;2023-12-14T19:40:12;17.0;;;13.3;;
40527;SDS011;26230;51.268;6.534;2023-12-14T19:50:12;17.7;;;14.3;;
40527;SDS011;26230;51.268;6.534;2023-12-14T20:00:12;19.0;;;14.6;;
40527;SDS011;26230;51.268;6.534;2023-12-14T20:10:11;19.0;;;14.6;;
40527;SDS011;26230;51.268;6.534;2023-12-14T20:20:12;20.4;;;15.5;;
40527;SDS011;26230;51.268;6.534;2023-12-14T20:30:12;20.9;;;15.9;;
40527;SDS011;26230;51.268;6.534;2023-12-14T20:40:19;20.9;;;15.9;;
40527;SDS011;26230;51.268;6.534;2023-12-14T20:50:11;21.2;;;15.6;;
40527;SDS011;26230;51.268;6.534;2023-12-14T21:00:11;21.5;;;16.4;;
40527;SDS011;26230;51.268;6.534;2023-12-14T21:10:13;21.5;;;16.4;;
40527;SDS011;26230;51.268;6.534;2023-12-14T21:20:13;24.5;;;16.4;;
40527;SDS011;26230;51.268;6.534;2023-12-14T21:30:14;21.7;;;17.3;;
40527;SDS011;26230;51.268;6.534;2023-12-14T21:40:14;21.7;;;17.3;;
40527;SDS011;26230;51.268;6.534;2023-12-14T21:50:12;23.0;;;16.2;;
40527;SDS011;26230;51.268;6.534;2023-12-14T22:00:12;24.7;;;17.2;;
40527;SDS011;26230;51.268;6.534;2023-12-14T22:10:15;24.7;;;17.2;;
40527;SDS011;26230;51.268;6.534;2023-12-14T22:20:12;23.2;;;16.2;;
40527;SDS011;26230;51.268;6.534;2023-12-14T22:30:11;27.5;;;18.9;;
40527;SDS011;26230;51.268;6.534;2023-12-14T22:40:12;27.5;;;18.9;;
40527;SDS011;26230;51.268;6.534;2023-12-14T22:50:11;30.3;;;20.1;;
40527;SDS011;26230;51.268;6.534;2023-12-14T23:00:12;26.4;;;18.2;;
40527;SDS011;26230;51.268;6.534;2023-12-14T23:10:13;26.4;;;18.2;;
40527;SDS011;26230;51.268;6.534;2023-12-14T23:20:12;33.0;;;19.4;;
40527;SDS011;26230;51.268;6.534;2023-12-14T23:30:11;26.5;;;17.0;;
40527;SDS011;26230;51.268;6.534;2023-12-14T23:40:11;26.5;;;17.0;;
40527;SDS011;26230;51.268;6.534;2023-12-14T23:50:11;25.1;;;16.3;;
